createdAt,value
2022-08-26T00:02:13.940Z,65.85
2022-08-26T00:05:04.591Z,65.99
2022-08-26T00:07:53.596Z,65.96
2022-08-26T00:10:43.293Z,65.95
2022-08-26T00:13:31.396Z,65.95
2022-08-26T00:16:19.575Z,65.90
2022-08-26T00:19:08.108Z,65.98
2022-08-26T00:21:56.175Z,65.71
2022-08-26T00:24:47.981Z,66.08
2022-08-26T00:27:37.169Z,66.12
2022-08-26T00:30:29.603Z,66.38
2022-08-26T00:33:20.356Z,66.44
2022-08-26T00:36:19.986Z,66.37
2022-08-26T00:39:10.121Z,66.45
2022-08-26T00:41:58.247Z,66.56
2022-08-26T00:44:46.024Z,66.74
2022-08-26T00:47:45.019Z,66.71
2022-08-26T00:50:46.638Z,66.67
2022-08-26T00:53:42.367Z,66.80
2022-08-26T00:56:36.554Z,66.78
2022-08-26T00:59:26.272Z,66.70
2022-08-26T01:02:19.949Z,66.51
2022-08-26T01:05:11.762Z,66.41
2022-08-26T01:07:59.863Z,66.33
2022-08-26T01:10:48.154Z,66.42
2022-08-26T01:13:39.840Z,66.33
2022-08-26T01:16:27.717Z,66.38
2022-08-26T01:19:43.645Z,66.29
2022-08-26T01:23:04.777Z,66.36
2022-08-26T01:26:05.305Z,66.40
2022-08-26T01:28:58.233Z,66.39
2022-08-26T01:31:52.973Z,66.34
2022-08-26T01:34:41.140Z,66.52
2022-08-26T01:37:36.816Z,66.66
2022-08-26T01:40:33.825Z,66.76
2022-08-26T01:43:27.720Z,66.75
2022-08-26T01:46:17.243Z,66.72
2022-08-26T01:49:07.865Z,66.67
2022-08-26T01:51:57.800Z,66.59
2022-08-26T01:54:46.231Z,66.51
2022-08-26T01:57:38.335Z,66.61
2022-08-26T02:00:26.805Z,66.57
2022-08-26T02:03:17.372Z,66.71
2022-08-26T02:06:09.415Z,66.74
2022-08-26T02:09:02.189Z,66.71
2022-08-26T02:11:51.057Z,66.65
2022-08-26T02:14:47.318Z,66.62
2022-08-26T02:17:46.241Z,66.66
2022-08-26T02:20:33.933Z,66.67
2022-08-26T02:23:24.349Z,66.52
2022-08-26T02:26:20.598Z,66.55
2022-08-26T02:29:26.866Z,66.44
2022-08-26T02:32:18.616Z,66.76
2022-08-26T02:35:09.098Z,66.77
2022-08-26T02:38:02.721Z,66.51
2022-08-26T02:40:58.259Z,65.91
2022-08-26T02:43:46.218Z,66.72
2022-08-26T02:46:34.465Z,66.52
2022-08-26T02:49:24.194Z,66.93
2022-08-26T02:52:12.686Z,67.35
2022-08-26T02:55:00.628Z,67.32
2022-08-26T02:57:50.062Z,67.33
2022-08-26T03:00:52.546Z,67.37
2022-08-26T03:03:41.495Z,67.38
2022-08-26T03:06:29.752Z,67.32
2022-08-26T03:09:21.429Z,67.33
2022-08-26T03:12:12.051Z,67.39
2022-08-26T03:15:01.808Z,67.41
2022-08-26T03:17:50.383Z,67.15
2022-08-26T03:20:38.927Z,67.48
2022-08-26T03:23:26.636Z,67.58
2022-08-26T03:26:16.290Z,67.60
2022-08-26T03:29:23.913Z,67.56
2022-08-26T03:32:12.099Z,67.36
2022-08-26T03:34:59.707Z,67.54
2022-08-26T03:37:48.102Z,67.54
2022-08-26T03:40:38.073Z,67.39
2022-08-26T03:43:27.027Z,67.04
2022-08-26T03:46:15.270Z,67.47
2022-08-26T03:49:06.263Z,67.48
2022-08-26T03:51:54.829Z,67.53
2022-08-26T03:54:43.517Z,67.31
2022-08-26T03:57:31.495Z,66.46
2022-08-26T04:00:21.028Z,67.40
2022-08-26T04:03:09.966Z,67.49
2022-08-26T04:05:58.336Z,67.91
2022-08-26T04:08:46.145Z,67.87
2022-08-26T04:11:39.663Z,67.29
2022-08-26T04:14:28.506Z,67.93
2022-08-26T04:17:16.406Z,68.06
2022-08-26T04:20:07.813Z,67.44
2022-08-26T04:22:57.033Z,67.72
2022-08-26T04:25:44.769Z,67.87
2022-08-26T04:28:32.791Z,67.46
2022-08-26T04:31:21.067Z,67.82
2022-08-26T04:34:11.008Z,67.78
2022-08-26T04:36:59.629Z,67.57
2022-08-26T04:39:54.810Z,67.67
2022-08-26T04:42:43.027Z,67.06
2022-08-26T04:45:30.981Z,67.43
2022-08-26T04:48:18.984Z,67.66
2022-08-26T04:51:06.953Z,67.42
2022-08-26T04:53:57.920Z,67.16
2022-08-26T04:56:49.620Z,67.07
2022-08-26T04:59:39.410Z,67.02
2022-08-26T05:02:28.209Z,66.76
2022-08-26T05:05:18.044Z,66.96
2022-08-26T05:08:06.226Z,66.79
2022-08-26T05:10:56.408Z,66.62
2022-08-26T05:13:47.602Z,66.80
2022-08-26T05:16:35.622Z,66.77
2022-08-26T05:19:24.079Z,66.75
2022-08-26T05:22:13.244Z,66.58
2022-08-26T05:25:01.675Z,66.45
2022-08-26T05:27:49.320Z,66.24
2022-08-26T05:30:38.399Z,66.26
2022-08-26T05:33:26.775Z,66.19
2022-08-26T05:36:19.159Z,66.17
2022-08-26T05:39:08.187Z,66.08
2022-08-26T05:41:59.098Z,66.03
2022-08-26T05:44:53.715Z,65.73
2022-08-26T05:47:44.047Z,65.29
2022-08-26T05:50:32.086Z,65.16
2022-08-26T05:53:22.329Z,64.96
2022-08-26T05:56:14.430Z,64.85
2022-08-26T05:59:03.117Z,64.41
2022-08-26T06:01:55.104Z,63.66
2022-08-26T06:04:43.543Z,63.85
2022-08-26T06:07:50.824Z,63.66
2022-08-26T06:10:52.709Z,63.38
2022-08-26T06:13:41.788Z,63.39
2022-08-26T06:16:31.467Z,63.41
2022-08-26T06:19:19.522Z,63.31
2022-08-26T06:22:27.839Z,63.45
2022-08-26T06:25:34.176Z,62.80
2022-08-26T06:28:22.329Z,62.66
2022-08-26T06:31:10.873Z,62.59
2022-08-26T06:33:59.062Z,62.73
2022-08-26T06:36:49.778Z,62.54
2022-08-26T06:39:41.291Z,62.67
2022-08-26T06:42:29.835Z,62.32
2022-08-26T06:45:19.631Z,62.44
2022-08-26T06:48:08.304Z,62.15
2022-08-26T06:51:14.153Z,61.48
2022-08-26T06:54:03.209Z,59.60
2022-08-26T06:56:51.021Z,58.76
2022-08-26T06:59:39.241Z,62.33
2022-08-26T07:02:28.691Z,61.53
2022-08-26T07:05:16.921Z,59.98
2022-08-26T07:08:05.747Z,60.08
2022-08-26T07:10:53.895Z,63.18
2022-08-26T07:13:43.971Z,60.74
2022-08-26T07:16:32.650Z,59.26
2022-08-26T07:19:29.861Z,59.59
2022-08-26T07:22:19.012Z,60.95
2022-08-26T07:25:09.120Z,63.95
2022-08-26T07:27:56.724Z,60.68
2022-08-26T07:30:44.618Z,57.55
2022-08-26T07:33:32.764Z,55.09
2022-08-26T07:36:23.357Z,47.74
2022-08-26T07:39:11.746Z,50.75
2022-08-26T07:42:07.546Z,48.97
2022-08-26T07:44:56.235Z,43.73
2022-08-26T07:47:45.827Z,46.32
2022-08-26T07:50:48.955Z,44.19
2022-08-26T07:53:37.833Z,42.14
2022-08-26T07:56:26.012Z,40.45
2022-08-26T07:59:15.288Z,40.46
2022-08-26T08:02:03.709Z,41.65
2022-08-26T08:04:51.974Z,42.14
2022-08-26T08:07:45.373Z,42.90
2022-08-26T08:10:36.466Z,44.02
2022-08-26T08:13:25.179Z,45.16
2022-08-26T08:16:13.055Z,45.82
2022-08-26T08:19:01.436Z,46.86
2022-08-26T08:21:51.778Z,48.38
2022-08-26T08:24:40.128Z,49.37
2022-08-26T08:27:28.293Z,51.03
2022-08-26T08:30:22.889Z,51.62
2022-08-26T08:33:11.042Z,52.64
2022-08-26T08:36:00.168Z,52.34
2022-08-26T08:38:48.129Z,52.51
2022-08-26T08:41:45.452Z,52.92
2022-08-26T08:44:38.117Z,53.05
2022-08-26T08:48:16.376Z,52.96
2022-08-26T08:51:46.140Z,51.70
2022-08-26T08:54:34.306Z,52.21
2022-08-26T08:57:45.624Z,51.50
2022-08-26T09:00:46.778Z,48.13
2022-08-26T09:04:12.395Z,49.60
2022-08-26T09:07:10.625Z,46.73
2022-08-26T09:10:40.854Z,45.25
2022-08-26T09:13:31.747Z,44.35
2022-08-26T09:16:25.249Z,42.23
2022-08-26T09:19:31.235Z,43.19
2022-08-26T09:22:35.150Z,43.09
2022-08-26T09:25:24.206Z,42.78
2022-08-26T09:28:18.783Z,42.07
2022-08-26T09:31:28.121Z,42.49
2022-08-26T09:34:25.320Z,42.70
2022-08-26T09:37:13.303Z,43.38
2022-08-26T09:40:22.796Z,43.65
2022-08-26T09:43:22.419Z,40.58
2022-08-26T09:46:27.891Z,42.73
2022-08-26T09:49:38.007Z,43.24
2022-08-26T09:52:28.057Z,43.10
2022-08-26T09:55:23.876Z,41.29
2022-08-26T09:58:32.904Z,39.99
2022-08-26T10:01:24.170Z,41.32
2022-08-26T10:04:22.215Z,41.54
2022-08-26T10:07:10.270Z,37.84
2022-08-26T10:09:58.254Z,39.10
2022-08-26T10:13:05.177Z,39.17
2022-08-26T10:16:02.272Z,38.60
2022-08-26T10:19:00.849Z,33.38
2022-08-26T10:22:13.921Z,34.04
2022-08-26T10:25:07.473Z,29.22
2022-08-26T10:28:12.284Z,30.58
2022-08-26T10:31:30.374Z,31.40
2022-08-26T10:34:26.816Z,29.18
2022-08-26T10:37:21.570Z,27.97
2022-08-26T10:40:24.965Z,27.49
2022-08-26T10:45:59.435Z,26.51
2022-08-26T10:49:13.229Z,28.52
2022-08-26T10:52:16.620Z,28.45
2022-08-26T10:55:28.873Z,27.93
2022-08-26T10:58:56.918Z,28.83
2022-08-26T11:01:52.705Z,26.55
2022-08-26T11:04:57.386Z,25.11
2022-08-26T11:07:54.847Z,26.82
2022-08-26T11:10:42.863Z,27.08
2022-08-26T11:13:57.408Z,24.64
2022-08-26T11:16:52.426Z,22.72
2022-08-26T11:19:59.445Z,22.42
2022-08-26T11:22:55.132Z,23.55
2022-08-26T11:26:01.177Z,24.04
2022-08-26T11:28:50.753Z,25.15
2022-08-26T11:31:39.736Z,26.18
2022-08-26T11:35:04.123Z,26.27
2022-08-26T11:37:59.735Z,27.44
2022-08-26T11:41:09.079Z,27.14
2022-08-26T11:43:59.778Z,27.14
2022-08-26T11:46:54.607Z,26.83
2022-08-26T11:49:42.494Z,27.52
2022-08-26T11:52:31.297Z,27.73
2022-08-26T11:55:23.398Z,28.12
2022-08-26T11:58:14.547Z,28.61
2022-08-26T12:01:09.587Z,28.88
2022-08-26T12:04:00.697Z,28.94
2022-08-26T12:06:53.327Z,28.96
2022-08-26T12:09:55.399Z,29.60
2022-08-26T12:12:54.283Z,29.82
2022-08-26T12:15:41.881Z,30.10
2022-08-26T12:18:38.384Z,30.81
2022-08-26T12:21:34.940Z,31.63
2022-08-26T12:24:23.062Z,32.38
2022-08-26T12:27:24.179Z,32.27
2022-08-26T12:30:21.446Z,32.82
2022-08-26T12:33:22.713Z,33.42
2022-08-26T12:36:12.144Z,32.57
2022-08-26T12:39:14.601Z,32.72
2022-08-26T12:42:26.386Z,33.25
2022-08-26T12:45:46.413Z,33.05
2022-08-26T12:48:38.734Z,34.18
2022-08-26T12:51:35.029Z,35.28
2022-08-26T12:54:42.701Z,36.98
2022-08-26T12:57:36.161Z,37.99
2022-08-26T13:00:39.736Z,38.62
2022-08-26T13:03:34.922Z,39.28
2022-08-26T13:06:22.996Z,40.27
2022-08-26T13:09:10.896Z,40.29
2022-08-26T13:11:59.586Z,40.51
2022-08-26T13:14:51.075Z,40.31
2022-08-26T13:17:39.610Z,40.47
2022-08-26T13:20:28.272Z,40.73
2022-08-26T13:23:21.683Z,40.70
2022-08-26T13:26:09.614Z,40.84
2022-08-26T13:29:01.683Z,40.85
2022-08-26T13:31:50.572Z,41.35
2022-08-26T13:34:39.174Z,41.58
2022-08-26T13:37:34.443Z,42.02
2022-08-26T13:40:22.803Z,42.12
2022-08-26T13:43:12.074Z,42.56
2022-08-26T13:46:01.741Z,42.92
2022-08-26T13:48:49.651Z,43.12
2022-08-26T13:51:38.415Z,43.22
2022-08-26T13:54:26.151Z,43.51
2022-08-26T13:57:15.894Z,43.86
2022-08-26T14:00:05.754Z,44.08
2022-08-26T14:03:00.719Z,44.35
2022-08-26T14:05:49.069Z,44.66
2022-08-26T14:08:38.119Z,45.01
2022-08-26T14:11:27.828Z,45.00
2022-08-26T14:14:15.725Z,45.17
2022-08-26T14:17:04.702Z,45.19
2022-08-26T14:19:53.875Z,45.43
2022-08-26T14:23:03.637Z,44.98
2022-08-26T14:25:54.161Z,45.08
2022-08-26T14:28:42.015Z,45.26
2022-08-26T14:31:32.007Z,45.31
2022-08-26T14:34:20.301Z,44.96
2022-08-26T14:37:11.458Z,44.93
2022-08-26T14:40:01.868Z,45.00
2022-08-26T14:42:54.038Z,45.24
2022-08-26T14:45:45.836Z,44.99
2022-08-26T14:48:33.654Z,45.19
2022-08-26T14:51:21.996Z,45.38
2022-08-26T14:54:13.749Z,45.59
2022-08-26T14:57:07.470Z,45.61
2022-08-26T14:59:55.395Z,45.96
2022-08-26T15:02:44.703Z,46.03
2022-08-26T15:05:34.084Z,46.34
2022-08-26T15:08:22.099Z,46.28
2022-08-26T15:11:10.570Z,46.39
2022-08-26T15:14:00.025Z,46.50
2022-08-26T15:16:50.773Z,46.66
2022-08-26T15:19:39.193Z,46.69
2022-08-26T15:22:29.448Z,46.77
2022-08-26T15:25:18.233Z,47.02
2022-08-26T15:28:06.475Z,47.12
2022-08-26T15:30:54.552Z,47.24
2022-08-26T15:33:42.977Z,47.54
2022-08-26T15:36:32.578Z,47.73
2022-08-26T15:39:21.378Z,48.29
2022-08-26T15:42:09.785Z,48.46
2022-08-26T15:44:57.370Z,48.85
2022-08-26T15:47:49.338Z,49.49
2022-08-26T15:50:53.825Z,49.54
2022-08-26T15:53:42.041Z,49.92
2022-08-26T15:56:35.125Z,50.02
2022-08-26T15:59:23.274Z,50.46
2022-08-26T16:02:11.782Z,50.57
2022-08-26T16:05:00.517Z,50.68
2022-08-26T16:07:48.858Z,51.41
2022-08-26T16:10:45.454Z,51.37
2022-08-26T16:13:39.748Z,51.66
2022-08-26T16:16:28.337Z,51.89
2022-08-26T16:19:19.143Z,52.04
2022-08-26T16:22:09.419Z,52.31
2022-08-26T16:25:00.392Z,52.85
2022-08-26T16:27:48.525Z,53.23
2022-08-26T16:30:37.918Z,54.07
2022-08-26T16:33:29.398Z,53.69
2022-08-26T16:36:18.081Z,53.97
2022-08-26T16:39:08.263Z,54.91
2022-08-26T16:41:56.220Z,54.64
2022-08-26T16:44:44.696Z,54.62
2022-08-26T16:47:33.596Z,55.12
2022-08-26T16:50:23.902Z,55.12
2022-08-26T16:56:05.299Z,55.43
2022-08-26T16:58:54.850Z,55.99
2022-08-26T17:01:42.499Z,56.47
2022-08-26T17:04:32.054Z,56.78
2022-08-26T17:07:19.971Z,56.63
2022-08-26T17:10:09.237Z,57.34
2022-08-26T17:12:57.614Z,57.74
2022-08-26T17:15:55.013Z,57.92
2022-08-26T17:18:46.575Z,58.47
2022-08-26T17:21:36.867Z,59.57
2022-08-26T17:24:25.795Z,60.24
2022-08-26T17:27:14.160Z,60.17
2022-08-26T17:30:02.272Z,61.03
2022-08-26T17:32:51.760Z,61.70
2022-08-26T17:35:39.338Z,65.96
2022-08-26T17:38:29.374Z,66.47
2022-08-26T17:41:17.405Z,64.25
2022-08-26T17:44:06.373Z,60.71
2022-08-26T17:46:54.250Z,59.41
2022-08-26T17:49:42.248Z,59.75
2022-08-26T17:52:30.758Z,61.09
2022-08-26T17:55:19.361Z,61.59
2022-08-26T17:58:07.513Z,65.18
2022-08-26T18:00:55.482Z,66.51
2022-08-26T18:03:43.675Z,64.15
2022-08-26T18:06:31.917Z,62.50
2022-08-26T18:09:20.100Z,59.70
2022-08-26T18:12:08.793Z,59.43
2022-08-26T18:14:56.658Z,60.41
2022-08-26T18:17:45.862Z,61.59
2022-08-26T18:20:33.829Z,65.62
2022-08-26T18:23:21.911Z,66.09
2022-08-26T18:26:09.613Z,63.96
2022-08-26T18:29:02.147Z,62.69
2022-08-26T18:31:50.311Z,61.48
2022-08-26T18:34:41.026Z,59.51
2022-08-26T18:37:31.624Z,59.63
2022-08-26T18:40:19.574Z,60.79
2022-08-26T18:43:08.287Z,64.48
2022-08-26T18:46:07.251Z,65.56
2022-08-26T18:48:56.797Z,64.18
2022-08-26T18:51:46.558Z,62.78
2022-08-26T18:54:34.599Z,61.94
2022-08-26T18:57:22.838Z,59.99
2022-08-26T19:00:15.328Z,60.16
2022-08-26T19:03:03.152Z,61.85
2022-08-26T19:05:52.039Z,65.73
2022-08-26T19:08:44.508Z,66.14
2022-08-26T19:11:37.499Z,64.54
2022-08-26T19:14:32.008Z,63.24
2022-08-26T19:17:19.977Z,62.45
2022-08-26T19:20:10.971Z,61.86
2022-08-26T19:23:05.757Z,61.09
2022-08-26T19:25:59.590Z,59.38
2022-08-26T19:28:49.537Z,60.19
2022-08-26T19:31:37.554Z,61.73
2022-08-26T19:34:26.444Z,65.80
2022-08-26T19:37:14.221Z,66.22
2022-08-26T19:40:02.532Z,64.32
2022-08-26T19:42:51.077Z,63.27
2022-08-26T19:45:39.089Z,62.64
2022-08-26T19:48:26.912Z,61.89
2022-08-26T19:51:26.289Z,61.49
2022-08-26T19:54:14.448Z,61.11
2022-08-26T19:57:02.473Z,60.86
2022-08-26T19:59:50.461Z,60.63
2022-08-26T20:02:39.836Z,59.34
2022-08-26T20:05:28.809Z,60.03
2022-08-26T20:08:22.221Z,62.15
2022-08-26T20:11:16.313Z,66.35
2022-08-26T20:14:04.828Z,65.79
2022-08-26T20:16:52.920Z,64.45
2022-08-26T20:19:59.250Z,63.23
2022-08-26T20:22:47.251Z,62.61
2022-08-26T20:25:36.696Z,62.30
2022-08-26T20:28:24.671Z,61.80
2022-08-26T20:31:12.870Z,61.18
2022-08-26T20:34:02.175Z,60.64
2022-08-26T20:36:51.146Z,60.25
2022-08-26T20:39:39.423Z,58.73
2022-08-26T20:42:30.183Z,59.44
2022-08-26T20:45:18.228Z,61.59
2022-08-26T20:48:05.944Z,65.16
2022-08-26T20:51:00.801Z,65.53
2022-08-26T20:53:51.186Z,63.75
2022-08-26T20:56:40.471Z,62.63
2022-08-26T20:59:28.530Z,61.96
2022-08-26T21:02:16.529Z,61.40
2022-08-26T21:05:06.323Z,60.89
2022-08-26T21:07:54.131Z,60.54
2022-08-26T21:10:42.589Z,60.23
2022-08-26T21:13:42.920Z,60.08
2022-08-26T21:16:41.498Z,59.71
2022-08-26T21:19:30.241Z,58.68
2022-08-26T21:22:18.194Z,59.61
2022-08-26T21:25:07.327Z,61.40
2022-08-26T21:27:56.638Z,65.55
2022-08-26T21:30:44.573Z,65.76
2022-08-26T21:33:32.771Z,64.27
2022-08-26T21:36:20.670Z,62.94
2022-08-26T21:39:11.810Z,62.00
2022-08-26T21:42:00.411Z,61.15
2022-08-26T21:44:52.881Z,60.74
2022-08-26T21:47:42.026Z,60.04
2022-08-26T21:50:30.769Z,58.26
2022-08-26T21:53:19.814Z,59.02
2022-08-26T21:56:15.268Z,60.99
2022-08-26T21:59:03.058Z,64.33
2022-08-26T22:01:51.492Z,63.19
2022-08-26T22:04:39.658Z,61.27
2022-08-26T22:07:27.791Z,57.06
2022-08-26T22:10:16.016Z,57.16
2022-08-26T22:13:03.844Z,58.47
2022-08-26T22:15:52.408Z,58.86
2022-08-26T22:18:45.123Z,60.52
2022-08-26T22:21:33.555Z,63.17
2022-08-26T22:24:24.010Z,61.36
2022-08-26T22:27:14.044Z,58.17
2022-08-26T22:30:02.199Z,56.51
2022-08-26T22:32:50.789Z,58.31
2022-08-26T22:35:41.191Z,60.47
2022-08-26T22:38:29.179Z,65.85
2022-08-26T22:41:18.576Z,66.27
2022-08-26T22:44:06.761Z,64.42
2022-08-26T22:46:54.498Z,63.14
2022-08-26T22:49:42.646Z,62.16
2022-08-26T22:52:30.398Z,61.63
2022-08-26T22:55:18.499Z,61.10
2022-08-26T22:58:07.373Z,60.52
2022-08-26T23:00:55.686Z,59.01
2022-08-26T23:03:45.400Z,59.63
2022-08-26T23:06:41.171Z,61.53
2022-08-26T23:09:29.371Z,65.93
2022-08-26T23:12:17.362Z,65.86
2022-08-26T23:15:09.362Z,64.13
2022-08-26T23:17:58.622Z,62.91
2022-08-26T23:20:47.175Z,62.42
2022-08-26T23:23:35.818Z,61.66
2022-08-26T23:26:24.023Z,61.19
2022-08-26T23:29:15.787Z,60.90
2022-08-26T23:32:06.068Z,60.27
2022-08-26T23:34:56.558Z,58.75
2022-08-26T23:37:48.998Z,59.72
2022-08-26T23:40:38.855Z,61.63
2022-08-26T23:43:29.749Z,66.07
2022-08-26T23:46:19.068Z,66.30
2022-08-26T23:49:07.007Z,63.97
2022-08-26T23:52:14.142Z,62.64
2022-08-26T23:55:02.486Z,61.71
2022-08-26T23:57:50.693Z,61.16
